Big Elk, Kansas
Current Conditions -  °F | °C
As of 4:53 AM on Monday 20 Oct 2014 (Local Time) from KJLN Reporting Station
Overcast Overcast  
Wind Chill: 58°   Ceiling: 8000
Heat Index: 58°   Visibility: 10mi
Dew Point: 53°   Wind: 7mph
Humidity: 84%   Direction: 190°S
Pressure: 30.04"   Gusts: NA
Location:  37.0595°N, 94.7764°W
Report Text: KJLN 200953Z AUTO 19006KT 10SM OVC080 14/12 A3004 RMK AO2 SLP167 T01440117
Loading
Personal Weather Stations






























Interactive Weather Map
Tropical Storm Tracking
New forecast layout! Learn more

10-Day Weather Forecast

Advertisements
Track Severe Weather on mobile